Time;durP1;ratioP1;P1;durP2;ratioP2;P2;SDS_P1;SDS_P2;PMS_P1;PMS_P2;Temp;Humidity;BMP_temperature;BMP_pressure;BME280_temperature;BME280_humidity;BME280_pressure;Samples;Min_cycle;Max_cycle;Signal;HPM_P1;HPM_P2
2022/06/20 00:02:36;;;;;;;19.40;3.67;;;20.50;99.90;;;;;;4943867;29;20030;-78
2022/06/20 00:05:03;;;;;;;27.83;4.93;;;20.50;99.90;;;;;;4942317;29;20102;-77
2022/06/20 00:07:29;;;;;;;15.27;4.38;;;20.40;99.90;;;;;;4944499;29;20029;-78
2022/06/20 00:09:54;;;;;;;15.45;3.75;;;20.50;99.90;;;;;;4944645;29;20027;-78
2022/06/20 00:12:23;;;;;;;19.33;3.83;;;20.50;99.90;;;;;;4944046;29;20287;-78
2022/06/20 00:14:56;;;;;;;16.63;4.47;;;20.60;99.90;;;;;;4944451;29;20031;-78
2022/06/20 00:17:22;;;;;;;16.48;3.60;;;20.60;99.90;;;;;;4943763;29;20027;-78
2022/06/20 00:19:48;;;;;;;14.13;3.30;;;20.60;99.90;;;;;;4944265;29;20039;-78
2022/06/20 00:22:14;;;;;;;20.70;4.47;;;20.70;99.90;;;;;;4943983;29;20050;-77
2022/06/20 00:24:39;;;;;;;18.90;3.88;;;20.70;99.90;;;;;;4943748;29;20039;-78
2022/06/20 00:27:08;;;;;;;14.00;3.67;;;20.70;99.90;;;;;;4944370;29;20311;-78
2022/06/20 00:29:38;;;;;;;23.92;3.35;;;20.70;99.90;;;;;;4944165;29;20035;-77
2022/06/20 00:32:05;;;;;;;15.05;3.35;;;20.60;99.90;;;;;;4942622;29;20024;-77
2022/06/20 00:34:31;;;;;;;15.85;3.17;;;20.60;99.90;;;;;;4944290;29;20091;-78
2022/06/20 00:36:57;;;;;;;13.63;2.70;;;20.60;99.90;;;;;;4943862;29;20219;-77
2022/06/20 00:39:23;;;;;;;12.27;2.60;;;20.60;99.90;;;;;;4944119;29;20095;-77
2022/06/20 00:41:50;;;;;;;9.68;2.50;;;20.60;99.90;;;;;;4944368;29;20067;-77
2022/06/20 00:44:25;;;;;;;16.17;2.65;;;20.60;99.90;;;;;;4943735;29;20326;-77
2022/06/20 00:46:56;;;;;;;9.63;2.17;;;20.60;99.90;;;;;;4943166;29;20308;-78
2022/06/20 00:49:31;;;;;;;9.88;2.17;;;20.70;99.90;;;;;;4943645;29;20095;-78
2022/06/20 00:52:03;;;;;;;7.90;2.40;;;20.70;99.90;;;;;;4943867;29;20164;-78
2022/06/20 00:54:53;;;;;;;9.32;2.38;;;20.70;99.90;;;;;;4943575;29;20031;-77
2022/06/20 00:57:29;;;;;;;10.40;2.03;;;20.70;99.90;;;;;;4942955;29;20031;-77
2022/06/20 01:00:13;;;;;;;7.22;1.75;;;20.80;99.90;;;;;;4943706;29;20039;-77
2022/06/20 01:02:43;;;;;;;6.82;2.53;;;20.90;99.90;;;;;;4942887;29;20063;-78
2022/06/20 01:05:50;;;;;;;6.72;1.25;;;20.90;99.90;;;;;;4942977;29;20383;-77
2022/06/20 01:08:20;;;;;;;8.07;1.50;;;20.90;99.90;;;;;;4884823;29;20028;-77
2022/06/20 01:10:48;;;;;;;5.15;1.17;;;21.00;99.90;;;;;;4884633;29;20073;-77
2022/06/20 01:13:17;;;;;;;5.68;1.25;;;20.90;99.90;;;;;;4915858;29;20051;-77
2022/06/20 01:15:45;;;;;;;10.98;1.48;;;20.90;99.90;;;;;;4943148;29;20028;-77
2022/06/20 01:18:24;;;;;;;9.95;1.80;;;21.00;99.90;;;;;;4943396;29;20098;-78
2022/06/20 01:20:53;;;;;;;9.38;1.50;;;21.00;99.90;;;;;;4943760;29;20031;-77
2022/06/20 01:23:24;;;;;;;5.40;1.55;;;21.00;99.90;;;;;;4943551;29;20024;-78
2022/06/20 01:26:15;;;;;;;9.75;1.52;;;21.10;99.90;;;;;;4943617;29;20042;-78
2022/06/20 01:28:44;;;;;;;10.65;2.00;;;21.10;99.90;;;;;;4943565;29;20024;-77
2022/06/20 01:31:11;;;;;;;7.00;1.52;;;20.90;99.90;;;;;;4943294;29;20034;-77
2022/06/20 01:33:38;;;;;;;6.20;1.67;;;21.00;99.90;;;;;;4943539;29;20030;-77
2022/06/20 01:38:49;;;;;;;8.07;1.55;;;21.00;99.90;;;;;;4946664;29;20054;-78
2022/06/20 01:44:02;;;;;;;6.22;1.80;;;21.00;99.90;;;;;;4947287;29;20091;-77
2022/06/20 01:46:31;;;;;;;8.90;1.88;;;21.00;99.90;;;;;;4946748;29;20032;-77
2022/06/20 01:49:12;;;;;;;5.28;1.35;;;20.90;99.90;;;;;;4947088;29;20040;-77
2022/06/20 01:51:40;;;;;;;7.07;1.60;;;21.00;99.90;;;;;;4946423;29;20374;-77
2022/06/20 01:54:10;;;;;;;5.82;1.65;;;21.00;99.90;;;;;;4946953;29;20020;-77
2022/06/20 01:56:36;;;;;;;12.52;2.22;;;21.00;99.90;;;;;;4947022;29;20327;-77
2022/06/20 01:59:07;;;;;;;9.98;2.08;;;21.00;99.90;;;;;;4947009;29;20023;-77
2022/06/20 02:01:37;;;;;;;10.68;2.22;;;21.00;99.90;;;;;;4946759;29;20087;-77
2022/06/20 02:04:06;;;;;;;5.25;2.00;;;20.90;99.90;;;;;;4946682;29;20027;-77
2022/06/20 02:06:33;;;;;;;9.57;1.80;;;20.90;99.90;;;;;;4944447;29;20031;-78
2022/06/20 02:08:59;;;;;;;10.38;1.52;;;20.90;99.90;;;;;;4946625;29;20231;-77
2022/06/20 02:11:34;;;;;;;6.45;1.42;;;21.00;99.90;;;;;;4945174;29;20326;-77
2022/06/20 02:14:25;;;;;;;8.75;1.80;;;20.90;99.90;;;;;;4945771;29;20038;-77
2022/06/20 02:17:04;;;;;;;9.25;1.90;;;20.90;99.90;;;;;;4945925;29;20049;-77
2022/06/20 02:19:34;;;;;;;6.70;1.85;;;20.90;99.90;;;;;;4946346;29;20028;-77
2022/06/20 02:22:04;;;;;;;7.65;1.50;;;20.90;99.90;;;;;;4945502;29;20031;-78
2022/06/20 02:24:35;;;;;;;8.27;1.92;;;20.90;99.90;;;;;;4945007;29;20095;-78
2022/06/20 02:27:03;;;;;;;9.27;1.95;;;21.10;99.90;;;;;;4946091;29;20223;-77
2022/06/20 02:29:30;;;;;;;10.73;2.63;;;21.10;99.90;;;;;;4946330;29;20031;-78
2022/06/20 02:32:02;;;;;;;5.18;1.50;;;21.20;99.90;;;;;;4945706;29;20038;-78
2022/06/20 02:34:29;;;;;;;9.00;1.58;;;21.20;99.90;;;;;;4946140;29;20040;-78
2022/06/20 02:36:57;;;;;;;9.18;1.90;;;21.20;99.90;;;;;;4945353;29;20271;-77
2022/06/20 02:39:24;;;;;;;8.82;1.85;;;21.20;99.90;;;;;;4945776;29;20047;-77
2022/06/20 02:41:55;;;;;;;9.93;1.70;;;21.20;99.90;;;;;;4945975;29;20095;-77
2022/06/20 02:44:24;;;;;;;5.15;2.40;;;21.20;99.90;;;;;;4945616;29;20031;-78
2022/06/20 02:46:51;;;;;;;5.20;1.65;;;21.20;99.90;;;;;;4943642;29;20172;-78
2022/06/20 02:49:20;;;;;;;6.57;1.50;;;21.20;99.90;;;;;;4944141;29;20059;-77
2022/06/20 02:51:52;;;;;;;5.70;1.63;;;21.20;99.90;;;;;;4944866;29;20034;-77
2022/06/20 02:54:24;;;;;;;5.72;1.88;;;21.20;99.90;;;;;;4945239;29;20079;-78
2022/06/20 02:56:54;;;;;;;5.28;1.65;;;21.10;99.90;;;;;;4945534;29;20027;-78
2022/06/20 02:59:34;;;;;;;6.32;1.70;;;21.00;99.90;;;;;;4945444;29;20095;-77
2022/06/20 03:02:09;;;;;;;6.07;1.60;;;21.00;99.90;;;;;;4945713;29;20290;-77
2022/06/20 03:04:39;;;;;;;9.43;1.80;;;21.00;99.90;;;;;;4945362;29;20032;-77
2022/06/20 03:07:20;;;;;;;8.60;2.28;;;21.00;99.90;;;;;;4944586;29;20270;-77
2022/06/20 03:09:49;;;;;;;9.93;1.98;;;21.10;99.90;;;;;;4945739;29;20023;-78
2022/06/20 03:12:15;;;;;;;8.48;1.75;;;21.10;99.90;;;;;;4945088;29;20031;-77
2022/06/20 03:14:45;;;;;;;7.38;1.88;;;21.10;99.90;;;;;;4945372;29;20032;-77
2022/06/20 03:17:15;;;;;;;9.38;2.30;;;21.10;99.90;;;;;;4944994;29;20140;-77
2022/06/20 03:19:46;;;;;;;10.35;2.05;;;21.10;99.90;;;;;;4944339;29;20473;-77
2022/06/20 03:22:16;;;;;;;7.70;2.10;;;20.90;99.90;;;;;;4945048;29;20379;-77
2022/06/20 03:24:44;;;;;;;11.98;2.40;;;20.90;99.90;;;;;;4945333;29;20047;-77
2022/06/20 03:27:18;;;;;;;10.43;2.53;;;20.90;99.90;;;;;;4945302;29;20369;-78
2022/06/20 03:29:44;;;;;;;;;;;20.70;99.90;;;;;;4945665;29;20308;-77
2022/06/20 03:32:10;;;;;;;8.68;2.10;;;20.70;99.90;;;;;;4944829;29;19902;-77
2022/06/20 03:34:36;;;;;;;7.93;1.92;;;20.70;99.90;;;;;;4943443;29;20132;-77
2022/06/20 03:37:02;;;;;;;9.45;2.42;;;20.70;99.90;;;;;;4945035;29;20024;-77
2022/06/20 03:39:29;;;;;;;13.68;2.13;;;20.70;99.90;;;;;;4945063;29;20074;-77
2022/06/20 03:41:55;;;;;;;9.07;2.35;;;20.70;99.90;;;;;;4945052;29;20043;-77
2022/06/20 03:44:31;;;;;;;7.15;2.20;;;20.70;99.90;;;;;;4944964;29;20031;-77
2022/06/20 03:47:06;;;;;;;11.63;2.08;;;20.70;99.90;;;;;;4944682;29;20115;-77
2022/06/20 03:49:38;;;;;;;6.50;2.28;;;20.60;99.90;;;;;;4944808;29;20157;-77
2022/06/20 03:52:40;;;;;;;8.07;1.83;;;20.60;99.90;;;;;;4944971;29;20019;-77
2022/06/20 03:55:15;;;;;;;10.70;2.25;;;20.50;99.90;;;;;;4914311;29;20036;-78
2022/06/20 03:57:48;;;;;;;10.40;2.50;;;20.50;99.90;;;;;;4944798;29;20019;-78
2022/06/20 04:00:17;;;;;;;8.00;1.98;;;20.50;99.90;;;;;;4943872;29;20148;-78
2022/06/20 04:03:01;;;;;;;9.85;2.30;;;20.40;99.90;;;;;;4944544;29;20258;-78
2022/06/20 04:05:52;;;;;;;9.68;2.13;;;20.40;99.90;;;;;;4944432;29;20035;-77
2022/06/20 04:11:20;;;;;;;8.23;1.95;;;20.40;99.90;;;;;;4944663;29;20455;-77
2022/06/20 04:14:24;;;;;;;11.57;2.28;;;20.40;99.90;;;;;;4944505;29;20334;-77
2022/06/20 04:16:58;;;;;;;10.50;2.40;;;20.40;99.90;;;;;;4944006;29;20042;-77
2022/06/20 04:19:30;;;;;;;12.32;2.00;;;20.40;99.90;;;;;;4944122;29;20337;-77
2022/06/20 04:22:13;;;;;;;11.18;2.55;;;20.40;99.90;;;;;;4943720;29;20027;-77
2022/06/20 04:24:47;;;;;;;11.15;2.22;;;20.40;99.90;;;;;;4944483;29;20019;-77
2022/06/20 04:27:32;;;;;;;11.65;2.30;;;20.40;99.90;;;;;;4942494;29;20300;-77
2022/06/20 04:30:03;;;;;;;8.85;2.10;;;20.40;99.90;;;;;;4944355;29;20015;-77
2022/06/20 04:32:57;;;;;;;11.35;2.50;;;20.40;99.90;;;;;;4944128;29;20095;-77
2022/06/20 04:35:30;;;;;;;11.93;3.50;;;20.30;99.90;;;;;;4943517;29;20095;-77
2022/06/20 04:38:12;;;;;;;8.30;2.15;;;20.30;99.90;;;;;;4944226;29;20337;-77
2022/06/20 04:40:45;;;;;;;9.85;2.42;;;20.30;99.90;;;;;;4943115;29;20094;-77
2022/06/20 04:43:36;;;;;;;9.20;2.27;;;20.40;99.90;;;;;;4943111;29;20062;-77
2022/06/20 04:46:13;;;;;;;11.13;2.13;;;20.40;99.90;;;;;;4943656;29;20315;-77
2022/06/20 04:48:39;;;;;;;10.10;2.03;;;20.50;99.90;;;;;;4943878;29;20377;-77
2022/06/20 04:51:12;;;;;;;9.68;2.42;;;20.50;99.90;;;;;;4943482;29;20047;-77
2022/06/20 04:53:42;;;;;;;10.50;1.90;;;20.50;99.90;;;;;;4943512;29;20224;-78
2022/06/20 04:56:11;;;;;;;8.95;2.08;;;20.50;99.90;;;;;;4935035;29;20284;-79
2022/06/20 04:58:48;;;;;;;8.90;2.20;;;20.50;99.90;;;;;;4932311;29;20481;-78
2022/06/20 05:01:15;;;;;;;14.90;2.33;;;20.60;99.90;;;;;;4943040;29;20098;-78
2022/06/20 05:03:49;;;;;;;10.27;2.47;;;20.60;99.90;;;;;;4937775;29;20028;-78
2022/06/20 05:06:22;;;;;;;9.50;2.17;;;20.70;99.90;;;;;;4934869;29;20027;-78
2022/06/20 05:09:18;;;;;;;11.77;2.33;;;20.70;99.90;;;;;;4934020;29;20600;-78
2022/06/20 05:12:06;;;;;;;11.23;2.63;;;20.70;99.90;;;;;;4934843;29;20035;-78
2022/06/20 05:14:40;;;;;;;8.20;1.90;;;20.70;99.90;;;;;;4936966;29;20485;-77
2022/06/20 05:17:17;;;;;;;14.15;2.10;;;20.60;99.90;;;;;;4938454;29;20054;-77
2022/06/20 05:19:46;;;;;;;7.38;1.42;;;20.60;99.90;;;;;;4945153;29;20157;-77
2022/06/20 05:22:16;;;;;;;13.00;2.22;;;20.70;99.90;;;;;;4945147;29;20216;-77
2022/06/20 05:24:44;;;;;;;9.23;2.10;;;20.70;99.90;;;;;;4936293;29;20132;-78
2022/06/20 05:27:34;;;;;;;9.85;2.30;;;20.80;99.90;;;;;;4936228;29;20032;-77
2022/06/20 05:30:05;;;;;;;12.48;2.60;;;20.90;99.90;;;;;;4936353;29;20123;-77
2022/06/20 05:32:43;;;;;;;10.38;2.45;;;21.00;99.90;;;;;;4935861;29;20032;-77
2022/06/20 05:35:25;;;;;;;12.68;2.13;;;21.00;99.90;;;;;;4936115;29;20040;-77
2022/06/20 05:38:10;;;;;;;9.65;2.28;;;21.00;99.90;;;;;;4935981;29;20086;-77
2022/06/20 05:40:57;;;;;;;9.10;2.50;;;21.00;99.90;;;;;;4936272;29;20071;-77
2022/06/20 05:43:23;;;;;;;8.90;2.88;;;21.10;99.90;;;;;;4936216;29;20477;-77
2022/06/20 05:45:55;;;;;;;12.13;2.70;;;21.20;99.90;;;;;;4935665;29;20036;-77
2022/06/20 05:48:30;;;;;;;9.18;2.70;;;21.30;99.90;;;;;;4935430;29;20099;-77
2022/06/20 05:51:02;;;;;;;13.18;2.47;;;21.40;99.90;;;;;;4935588;29;20492;-77
2022/06/20 05:53:52;;;;;;;9.40;2.28;;;21.40;99.90;;;;;;4935601;29;20500;-77
2022/06/20 05:56:28;;;;;;;8.85;1.98;;;21.50;99.90;;;;;;4935752;29;20028;-77
2022/06/20 05:58:55;;;;;;;10.75;2.40;;;21.50;99.90;;;;;;4935503;29;20190;-77
2022/06/20 06:01:37;;;;;;;9.15;2.60;;;21.60;99.90;;;;;;4935477;29;20154;-77
2022/06/20 06:04:36;;;;;;;13.13;2.97;;;21.70;99.90;;;;;;4935542;29;20059;-77
2022/06/20 06:07:29;;;;;;;5.97;2.03;;;21.60;99.90;;;;;;4931351;29;20046;-77
2022/06/20 06:09:57;;;;;;;10.52;3.00;;;21.60;99.90;;;;;;4935971;29;20035;-77
2022/06/20 06:12:31;;;;;;;8.90;2.35;;;21.60;99.90;;;;;;4935395;29;20034;-77
2022/06/20 06:15:24;;;;;;;7.93;2.35;;;21.60;99.90;;;;;;4935506;29;20446;-78
2022/06/20 06:17:55;;;;;;;11.77;2.40;;;21.60;99.90;;;;;;4935239;29;20040;-77
2022/06/20 06:20:24;;;;;;;9.77;2.33;;;21.60;99.90;;;;;;4935439;29;20070;-77
2022/06/20 06:22:54;;;;;;;9.30;2.42;;;21.70;99.90;;;;;;4934752;29;20114;-77
2022/06/20 06:25:30;;;;;;;8.80;2.10;;;21.70;99.90;;;;;;4935133;29;20130;-78
2022/06/20 06:28:06;;;;;;;12.20;2.40;;;21.70;99.90;;;;;;4934921;29;20030;-77
2022/06/20 06:30:54;;;;;;;13.02;2.45;;;21.70;99.90;;;;;;4934763;29;20039;-77
2022/06/20 06:33:32;;;;;;;10.10;1.80;;;21.60;99.90;;;;;;4935396;29;20030;-77
2022/06/20 06:36:06;;;;;;;7.00;2.00;;;21.50;99.90;;;;;;4935417;29;20051;-78
2022/06/20 06:38:45;;;;;;;7.75;1.67;;;21.50;99.90;;;;;;4935104;29;20040;-78
2022/06/20 06:41:35;;;;;;;9.10;2.20;;;21.50;99.90;;;;;;4934981;29;20038;-78
2022/06/20 06:44:04;;;;;;;10.07;1.95;;;21.60;99.90;;;;;;4934847;29;20095;-77
2022/06/20 06:46:38;;;;;;;10.38;1.92;;;21.50;99.90;;;;;;4934462;29;20118;-77
2022/06/20 06:49:15;;;;;;;10.88;2.28;;;21.40;99.90;;;;;;4934496;29;20127;-78
2022/06/20 06:51:54;;;;;;;11.77;1.70;;;21.30;99.90;;;;;;4934622;29;20493;-77
2022/06/20 06:54:41;;;;;;;8.30;1.95;;;21.30;99.90;;;;;;4934507;29;20083;-77
2022/06/20 06:57:15;;;;;;;8.50;1.88;;;21.40;99.90;;;;;;4934625;29;20107;-78
2022/06/20 07:00:03;;;;;;;10.45;2.33;;;21.50;99.90;;;;;;4934517;29;20067;-78
2022/06/20 07:02:33;;;;;;;13.07;2.10;;;21.60;99.90;;;;;;4934232;29;20023;-77
2022/06/20 07:05:40;;;;;;;13.77;2.78;;;21.50;99.90;;;;;;4934523;29;20028;-77
2022/06/20 07:08:28;;;;;;;8.63;1.90;;;21.30;99.90;;;;;;4875101;29;20390;-77
2022/06/20 07:10:55;;;;;;;10.88;1.83;;;21.20;99.90;;;;;;4875002;29;20112;-77
2022/06/20 07:13:44;;;;;;;8.95;1.63;;;21.10;99.90;;;;;;4913140;29;20031;-77
2022/06/20 07:16:39;;;;;;;9.02;1.80;;;21.40;99.90;;;;;;4934062;29;20138;-78
2022/06/20 07:19:08;;;;;;;12.93;2.17;;;21.50;99.90;;;;;;4934312;29;20079;-77
2022/06/20 07:21:36;;;;;;;10.30;1.80;;;21.60;99.90;;;;;;4934220;29;20027;-77
2022/06/20 07:24:06;;;;;;;7.13;1.92;;;21.70;99.90;;;;;;4934121;29;20499;-78
2022/06/20 07:27:13;;;;;;;9.63;1.70;;;21.70;99.90;;;;;;4934216;29;20016;-78
2022/06/20 07:30:10;;;;;;;11.48;2.20;;;21.80;99.90;;;;;;4859085;29;20029;-78
2022/06/20 07:32:48;;;;;;;9.68;2.30;;;21.90;99.90;;;;;;4868118;29;20080;-78
2022/06/20 07:35:21;;;;;;;9.25;2.28;;;22.00;99.90;;;;;;4921167;29;20043;-77
2022/06/20 07:37:56;;;;;;;12.73;2.10;;;22.20;99.90;;;;;;4934077;29;20034;-78
2022/06/20 07:40:34;;;;;;;10.50;2.10;;;22.00;99.90;;;;;;4933808;29;20031;-78
2022/06/20 07:43:08;;;;;;;6.25;1.45;;;22.00;99.90;;;;;;4933810;29;20083;-78
2022/06/20 07:45:46;;;;;;;10.80;1.85;;;22.00;99.90;;;;;;4933638;29;20090;-79
2022/06/20 07:48:14;;;;;;;7.07;1.50;;;22.10;99.90;;;;;;4933553;29;20457;-79
2022/06/20 07:50:55;;;;;;;8.05;1.77;;;22.20;99.90;;;;;;4933697;29;20369;-79
2022/06/20 07:53:37;;;;;;;9.25;2.35;;;22.40;99.90;;;;;;4933443;29;20031;-79
2022/06/20 07:56:18;;;;;;;8.50;1.80;;;22.70;99.90;;;;;;4933681;29;20119;-79
2022/06/20 07:58:54;;;;;;;9.25;2.33;;;22.90;99.90;;;;;;4933725;29;20040;-80
2022/06/20 08:01:48;;;;;;;5.38;1.67;;;23.20;99.90;;;;;;4933459;29;20023;-80
2022/06/20 08:04:18;;;;;;;11.13;1.83;;;23.50;99.90;;;;;;4923023;29;20476;-80
2022/06/20 08:06:54;;;;;;;9.38;2.10;;;23.90;99.90;;;;;;4933656;29;20107;-80
2022/06/20 08:09:27;;;;;;;7.20;1.58;;;24.00;99.90;;;;;;4933356;29;20547;-80
2022/06/20 08:12:00;;;;;;;9.37;1.90;;;24.00;99.90;;;;;;4933138;29;20035;-79
2022/06/20 08:14:41;;;;;;;7.53;1.70;;;23.90;99.90;;;;;;4933265;29;20031;-79
2022/06/20 08:17:10;;;;;;;7.10;2.00;;;23.90;99.90;;;;;;4931841;29;20131;-80
2022/06/20 08:19:39;;;;;;;7.95;1.75;;;23.90;99.90;;;;;;4933524;29;20035;-80
2022/06/20 08:22:25;;;;;;;11.00;2.08;;;23.90;99.90;;;;;;4933243;29;20101;-80
2022/06/20 08:24:55;;;;;;;8.48;2.25;;;23.80;99.90;;;;;;4932841;29;20046;-80
2022/06/20 08:27:24;;;;;;;9.25;2.33;;;23.50;99.90;;;;;;4933047;29;20063;-80
2022/06/20 08:30:11;;;;;;;5.43;1.85;;;23.20;99.90;;;;;;4931655;29;20035;-80
2022/06/20 08:32:49;;;;;;;9.20;2.00;;;23.20;99.90;;;;;;4933242;29;20052;-80
2022/06/20 08:35:39;;;;;;;8.82;1.80;;;23.20;99.90;;;;;;4932853;29;20055;-80
2022/06/20 08:38:32;;;;;;;10.68;2.25;;;23.40;99.90;;;;;;4925879;29;20046;-80
2022/06/20 08:41:18;;;;;;;8.07;2.15;;;23.40;99.90;;;;;;4933001;29;20059;-80
2022/06/20 08:43:53;;;;;;;7.97;1.77;;;23.50;99.90;;;;;;4932896;29;20485;-80
2022/06/20 08:46:21;;;;;;;;;;;23.60;99.90;;;;;;4932827;29;20035;-80
2022/06/20 08:49:17;;;;;;;10.88;1.80;;;23.60;99.90;;;;;;4932655;29;19974;-80
2022/06/20 08:52:12;;;;;;;9.98;2.00;;;23.70;99.90;;;;;;4932734;29;20059;-80
2022/06/20 08:54:41;;;;;;;9.48;1.80;;;24.00;99.90;;;;;;4932582;29;20032;-79
2022/06/20 08:57:21;;;;;;;8.38;2.03;;;24.00;99.90;;;;;;4932621;29;20094;-80
2022/06/20 09:00:09;;;;;;;9.90;2.00;;;24.00;99.90;;;;;;4932701;29;20046;-79
2022/06/20 09:03:23;;;;;;;11.50;2.17;;;24.20;99.90;;;;;;4932557;29;20485;-80
2022/06/20 09:06:09;;;;;;;8.88;1.55;;;24.30;99.90;;;;;;4873601;29;20084;-80
2022/06/20 09:09:00;;;;;;;8.15;1.60;;;24.50;99.90;;;;;;4873671;29;20037;-80
2022/06/20 09:11:56;;;;;;;6.15;1.73;;;24.70;99.90;;;;;;4919292;29;20047;-80
2022/06/20 09:14:46;;;;;;;9.25;2.10;;;24.60;99.90;;;;;;4932497;29;20190;-80
2022/06/20 09:17:33;;;;;;;9.48;1.60;;;24.70;99.90;;;;;;4932353;29;20122;-80
2022/06/20 09:20:18;;;;;;;7.13;1.70;;;24.60;99.90;;;;;;4932574;29;20046;-80
2022/06/20 09:22:52;;;;;;;6.45;1.77;;;25.00;99.90;;;;;;4932625;29;20397;-80
2022/06/20 09:25:40;;;;;;;5.70;1.52;;;25.20;99.90;;;;;;4932697;29;20063;-80
2022/06/20 09:28:26;;;;;;;5.68;1.45;;;25.60;99.90;;;;;;4932678;29;20024;-80
2022/06/20 09:30:57;;;;;;;7.35;1.70;;;25.60;99.90;;;;;;4932345;29;20062;-80
2022/06/20 09:33:30;;;;;;;7.00;1.60;;;25.40;99.90;;;;;;4932282;29;20023;-80
2022/06/20 09:36:30;;;;;;;7.97;1.48;;;25.40;99.90;;;;;;4932401;29;20034;-80
2022/06/20 09:39:32;;;;;;;4.70;1.60;;;25.30;99.90;;;;;;4932346;29;20215;-80
2022/06/20 09:42:00;;;;;;;8.13;1.70;;;25.10;99.90;;;;;;4932479;29;20020;-80
2022/06/20 09:44:37;;;;;;;7.03;1.60;;;25.10;99.90;;;;;;4932424;29;20091;-80
2022/06/20 09:47:21;;;;;;;7.78;1.27;;;25.30;99.90;;;;;;4932254;29;20035;-80
2022/06/20 09:49:46;;;;;;;9.00;1.47;;;25.50;99.90;;;;;;4932154;29;20059;-80
2022/06/20 09:52:22;;;;;;;6.28;1.77;;;25.20;99.90;;;;;;4932338;29;20024;-80
2022/06/20 09:55:27;;;;;;;8.07;1.60;;;25.20;99.90;;;;;;4932305;29;20032;-79
2022/06/20 09:58:04;;;;;;;6.13;1.30;;;25.10;99.90;;;;;;4916045;29;20032;-80
2022/06/20 10:00:41;;;;;;;8.45;1.70;;;25.10;99.90;;;;;;4935765;29;20031;-79
2022/06/20 10:03:12;;;;;;;6.57;1.63;;;25.00;99.90;;;;;;4935619;29;20020;-80
2022/06/20 10:05:44;;;;;;;11.38;2.20;;;25.10;99.90;;;;;;4935958;29;20038;-80
2022/06/20 10:08:25;;;;;;;5.53;1.85;;;25.40;99.90;;;;;;4935612;29;20445;-80
2022/06/20 10:10:58;;;;;;;10.30;1.55;;;25.60;99.90;;;;;;4935613;29;20067;-80
2022/06/20 10:13:54;;;;;;;7.65;1.65;;;25.80;99.90;;;;;;4935492;29;20396;-80
2022/06/20 10:16:19;;;;;;;10.48;1.90;;;26.00;99.90;;;;;;4935257;29;20082;-80
2022/06/20 10:19:14;;;;;;;7.32;1.75;;;26.10;99.90;;;;;;4935044;29;20134;-80
2022/06/20 10:21:52;;;;;;;;;;;26.30;99.90;;;;;;4935780;29;20397;-80
2022/06/20 10:24:52;;;;;;;6.97;1.63;;;26.00;99.90;;;;;;4934066;29;19918;-79
2022/06/20 10:27:40;;;;;;;6.93;1.65;;;26.20;99.90;;;;;;4935086;29;20036;-80
2022/06/20 10:30:25;;;;;;;5.93;1.98;;;26.40;99.90;;;;;;4935425;29;20107;-80
2022/06/20 10:33:14;;;;;;;6.13;2.05;;;26.70;99.90;;;;;;4935098;29;20020;-80
2022/06/20 10:36:04;;;;;;;8.13;2.15;;;26.70;99.90;;;;;;4935201;29;20019;-80
2022/06/20 10:38:38;;;;;;;9.25;2.00;;;26.70;99.90;;;;;;4934730;29;20032;-79
2022/06/20 10:41:12;;;;;;;6.35;1.83;;;26.50;99.90;;;;;;4935123;29;20492;-80
2022/06/20 10:43:54;;;;;;;6.95;1.58;;;26.50;99.90;;;;;;4933626;29;20035;-79
2022/06/20 10:46:29;;;;;;;8.65;2.25;;;26.70;99.90;;;;;;4934939;29;20087;-79
2022/06/20 10:49:19;;;;;;;7.00;1.90;;;26.90;99.90;;;;;;4933235;29;20412;-79
2022/06/20 10:52:18;;;;;;;7.07;2.00;;;26.80;99.90;;;;;;4933635;29;20208;-80
2022/06/20 10:55:19;;;;;;;5.38;1.70;;;26.80;99.90;;;;;;4934631;29;20020;-79
2022/06/20 10:58:12;;;;;;;8.52;2.42;;;26.90;99.90;;;;;;4934457;29;20485;-79
2022/06/20 11:00:55;;;;;;;7.07;1.98;;;27.00;99.90;;;;;;4934822;29;20090;-79
2022/06/20 11:03:57;;;;;;;7.28;1.98;;;27.10;99.90;;;;;;4934675;29;20062;-81
2022/06/20 11:06:36;;;;;;;5.43;1.67;;;26.90;99.90;;;;;;4924745;29;20070;-80
2022/06/20 11:09:14;;;;;;;7.57;1.70;;;27.30;99.90;;;;;;4934475;29;20481;-80
2022/06/20 11:12:16;;;;;;;7.35;2.05;;;27.60;99.80;;;;;;4934524;29;20028;-80
2022/06/20 11:15:10;;;;;;;9.32;2.13;;;27.40;99.50;;;;;;4926286;29;20039;-81
2022/06/20 11:17:50;;;;;;;5.10;1.80;;;27.40;99.40;;;;;;4934059;29;20016;-80
2022/06/20 11:20:34;;;;;;;9.25;1.98;;;27.50;99.90;;;;;;4934127;29;20039;-80
2022/06/20 11:23:12;;;;;;;10.43;2.50;;;27.10;99.90;;;;;;4934270;29;20111;-80
2022/06/20 11:26:05;;;;;;;6.35;1.60;;;27.20;99.90;;;;;;4934230;29;20472;-80
2022/06/20 11:28:52;;;;;;;11.65;2.00;;;27.10;99.90;;;;;;4934169;29;20043;-80
2022/06/20 11:31:33;;;;;;;7.40;2.00;;;26.80;99.90;;;;;;4934110;29;20481;-81
2022/06/20 11:34:28;;;;;;;7.25;1.80;;;26.90;99.90;;;;;;4934189;29;20111;-80
2022/06/20 11:37:09;;;;;;;8.02;2.00;;;26.90;99.90;;;;;;4933833;29;20082;-80
2022/06/20 11:40:04;;;;;;;6.95;2.17;;;27.10;99.90;;;;;;4933721;29;20542;-80
2022/06/20 11:42:57;;;;;;;8.90;2.10;;;27.30;99.90;;;;;;4933901;29;20020;-80
2022/06/20 11:45:28;;;;;;;6.57;1.95;;;27.60;99.90;;;;;;4933682;29;20035;-80
2022/06/20 11:48:32;;;;;;;9.98;2.75;;;27.50;99.90;;;;;;4933797;29;20524;-80
2022/06/20 11:51:05;;;;;;;7.00;2.33;;;27.40;99.90;;;;;;4933841;29;20024;-80
2022/06/20 11:53:57;;;;;;;5.90;2.00;;;27.40;99.90;;;;;;4933939;29;20024;-81
2022/06/20 11:56:50;;;;;;;7.53;2.00;;;27.60;99.90;;;;;;4933495;29;20078;-80
2022/06/20 11:59:22;;;;;;;8.35;2.22;;;27.90;99.70;;;;;;4926770;29;20079;-80
2022/06/20 12:02:24;;;;;;;8.00;1.85;;;27.90;99.70;;;;;;4933598;29;20028;-81
2022/06/20 12:05:22;;;;;;;11.00;2.05;;;27.60;99.90;;;;;;4933553;29;20287;-80
2022/06/20 12:07:53;;;;;;;9.13;1.70;;;27.60;99.90;;;;;;4932115;29;20035;-81
2022/06/20 12:10:43;;;;;;;7.18;2.17;;;27.70;99.90;;;;;;4933408;29;20023;-81
2022/06/20 12:13:48;;;;;;;8.15;1.92;;;27.70;99.90;;;;;;4932084;29;20038;-80
2022/06/20 12:16:39;;;;;;;9.00;2.10;;;27.60;99.90;;;;;;4933317;29;20031;-81
2022/06/20 12:24:47;;;;;;;8.75;2.65;;;28.20;99.80;;;;;;4933047;29;20132;-80
2022/06/20 12:27:19;;;;;;;7.43;2.33;;;28.40;99.10;;;;;;4933078;29;20031;-78
2022/06/20 12:29:47;;;;;;;7.70;1.90;;;28.70;99.10;;;;;;4933065;29;20396;-79
2022/06/20 12:32:25;;;;;;;7.32;2.00;;;28.90;99.00;;;;;;4932935;29;20027;-79
2022/06/20 12:35:15;;;;;;;6.57;2.10;;;29.00;98.40;;;;;;4933279;29;20046;-79
2022/06/20 12:37:59;;;;;;;7.32;1.77;;;29.00;98.30;;;;;;4932896;29;20020;-79
2022/06/20 12:40:31;;;;;;;10.57;2.60;;;29.20;97.60;;;;;;4932804;29;20213;-79
2022/06/20 12:43:11;;;;;;;5.65;1.70;;;29.30;97.20;;;;;;4932740;29;20030;-79
2022/06/20 12:45:45;;;;;;;9.45;2.08;;;29.60;97.30;;;;;;4932778;29;20082;-79
2022/06/20 12:48:11;;;;;;;7.53;1.85;;;30.00;96.90;;;;;;4932417;29;20433;-79
2022/06/20 12:51:07;;;;;;;8.32;2.17;;;30.10;96.80;;;;;;4932771;29;20066;-79
2022/06/20 12:53:50;;;;;;;7.55;2.08;;;30.30;96.40;;;;;;4932798;29;20094;-79
2022/06/20 12:56:55;;;;;;;7.40;1.63;;;30.80;95.80;;;;;;4932731;29;20110;-79
2022/06/20 12:59:39;;;;;;;9.05;2.08;;;30.20;95.40;;;;;;4910207;29;20040;-79
2022/06/20 13:02:32;;;;;;;6.20;1.83;;;30.20;95.70;;;;;;4932566;29;20038;-79
2022/06/20 13:05:35;;;;;;;5.10;1.67;;;30.10;95.60;;;;;;4932640;29;20031;-79
2022/06/20 13:08:19;;;;;;;5.57;2.10;;;30.10;95.50;;;;;;4932725;29;20036;-79
2022/06/20 13:11:18;;;;;;;6.38;1.98;;;29.80;95.10;;;;;;4932791;29;20498;-79
2022/06/20 13:13:59;;;;;;;5.97;2.08;;;29.70;95.50;;;;;;4932573;29;20024;-79
2022/06/20 13:16:55;;;;;;;7.95;1.70;;;30.40;94.70;;;;;;4932376;29;20031;-79
2022/06/20 13:19:32;;;;;;;7.13;1.58;;;30.80;94.00;;;;;;4932509;29;20040;-79
2022/06/20 13:22:23;;;;;;;8.90;2.00;;;30.60;94.50;;;;;;4932267;29;20230;-79
2022/06/20 13:25:15;;;;;;;8.05;2.10;;;30.80;94.70;;;;;;4932275;29;20040;-79
2022/06/20 13:27:54;;;;;;;9.27;2.45;;;31.30;94.30;;;;;;4909887;29;20064;-79
2022/06/20 13:30:29;;;;;;;6.50;1.88;;;31.90;93.00;;;;;;4932770;29;20484;-79
2022/06/20 13:33:16;;;;;;;9.40;1.90;;;32.20;93.00;;;;;;4934425;29;20036;-79
2022/06/20 13:35:42;;;;;;;6.95;2.17;;;32.20;93.00;;;;;;4936274;29;20436;-79
2022/06/20 13:38:27;;;;;;;8.40;2.22;;;32.40;92.80;;;;;;4935971;29;20031;-79
2022/06/20 13:41:07;;;;;;;9.50;2.05;;;32.70;91.80;;;;;;4935847;29;20403;-79
2022/06/20 13:43:44;;;;;;;7.70;2.10;;;32.60;93.10;;;;;;4935742;29;20103;-79
2022/06/20 13:46:34;;;;;;;7.03;1.55;;;32.50;92.50;;;;;;4936012;29;20027;-79
2022/06/20 13:49:00;;;;;;;7.35;1.95;;;31.40;94.00;;;;;;4935803;29;20291;-79
2022/06/20 13:51:40;;;;;;;6.00;1.98;;;31.10;93.70;;;;;;4935825;29;20379;-79
2022/06/20 13:54:21;;;;;;;10.30;2.03;;;30.40;94.20;;;;;;4935828;29;20084;-79
2022/06/20 13:56:53;;;;;;;10.10;2.17;;;30.00;95.30;;;;;;4935670;29;20039;-79
2022/06/20 13:59:26;;;;;;;9.45;2.17;;;29.90;95.40;;;;;;4935416;29;20044;-79